createdAt,value
2018-06-05T00:00:19.669Z,23.38
2018-06-05T00:02:50.267Z,23.37
2018-06-05T00:05:21.705Z,23.37
2018-06-05T00:07:51.246Z,23.28
2018-06-05T00:10:22.750Z,23.20
2018-06-05T00:12:53.427Z,23.02
2018-06-05T00:15:24.346Z,23.02
2018-06-05T00:17:55.706Z,22.89
2018-06-05T00:20:25.554Z,22.86
2018-06-05T00:22:56.313Z,22.89
2018-06-05T00:25:27.655Z,22.91
2018-06-05T00:27:58.765Z,22.91
2018-06-05T00:30:29.372Z,22.90
2018-06-05T00:33:00.648Z,22.91
2018-06-05T00:35:31.749Z,22.91
2018-06-05T00:38:02.362Z,22.92
2018-06-05T00:40:33.705Z,22.92
2018-06-05T00:43:04.337Z,22.92
2018-06-05T00:45:35.933Z,22.90
2018-06-05T00:48:06.493Z,22.90
2018-06-05T00:50:37.433Z,22.89
2018-06-05T00:53:08.681Z,22.89
2018-06-05T00:55:39.369Z,22.88
2018-06-05T00:58:09.633Z,22.85
2018-06-05T01:00:40.445Z,22.84
2018-06-05T01:03:11.329Z,22.82
2018-06-05T01:05:42.684Z,22.81
2018-06-05T01:08:13.270Z,22.80
2018-06-05T01:10:44.661Z,22.79
2018-06-05T01:13:15.598Z,22.75
2018-06-05T01:15:46.596Z,22.77
2018-06-05T01:18:17.329Z,22.76
2018-06-05T01:20:48.686Z,22.73
2018-06-05T01:23:19.317Z,22.70
2018-06-05T01:25:50.753Z,22.65
2018-06-05T01:28:21.284Z,22.63
2018-06-05T01:30:52.716Z,22.60
2018-06-05T01:33:23.256Z,22.59
2018-06-05T01:35:54.754Z,22.56
2018-06-05T01:38:25.422Z,22.55
2018-06-05T01:40:56.393Z,22.55
2018-06-05T01:43:27.676Z,22.54
2018-06-05T01:45:58.302Z,22.52
2018-06-05T01:48:28.553Z,22.48
2018-06-05T01:50:59.418Z,22.43
2018-06-05T01:53:30.604Z,22.39
2018-06-05T01:56:01.434Z,22.36
2018-06-05T01:58:32.321Z,22.36
2018-06-05T02:01:03.690Z,22.31
2018-06-05T02:03:34.346Z,22.10
2018-06-05T02:06:05.954Z,22.30
2018-06-05T02:08:36.454Z,22.29
2018-06-05T02:11:07.695Z,22.29
2018-06-05T02:13:38.365Z,22.28
2018-06-05T02:16:09.721Z,22.27
2018-06-05T02:18:39.814Z,22.25
2018-06-05T02:21:10.431Z,22.23
2018-06-05T02:23:41.337Z,22.18
2018-06-05T02:26:12.697Z,22.14
2018-06-05T02:28:43.293Z,22.12
2018-06-05T02:31:14.714Z,22.04
2018-06-05T02:33:45.358Z,22.04
2018-06-05T02:36:16.622Z,22.00
2018-06-05T02:38:47.439Z,21.98
2018-06-05T02:41:18.621Z,21.97
2018-06-05T02:43:49.415Z,21.96
2018-06-05T02:46:20.345Z,21.94
2018-06-05T02:48:51.663Z,21.93
2018-06-05T02:51:22.366Z,21.90
2018-06-05T02:53:53.666Z,21.89
2018-06-05T02:56:24.520Z,21.86
2018-06-05T02:58:55.328Z,21.84
2018-06-05T03:01:26.675Z,21.84
2018-06-05T03:03:57.293Z,21.80
2018-06-05T03:06:28.663Z,21.79
2018-06-05T03:08:59.273Z,21.77
2018-06-05T03:11:30.685Z,21.78
2018-06-05T03:14:01.434Z,21.76
2018-06-05T03:16:32.420Z,21.74
2018-06-05T03:19:03.681Z,21.73
2018-06-05T03:21:34.363Z,21.72
2018-06-05T03:24:05.693Z,21.71
2018-06-05T03:26:36.329Z,21.71
2018-06-05T03:29:06.577Z,21.68
2018-06-05T03:31:37.945Z,21.66
2018-06-05T03:34:08.357Z,21.65
2018-06-05T03:36:39.688Z,21.63
2018-06-05T03:39:10.261Z,21.61
2018-06-05T03:41:41.701Z,21.59
2018-06-05T03:44:12.257Z,21.58
2018-06-05T03:46:43.649Z,21.58
2018-06-05T03:49:14.252Z,21.56
2018-06-05T03:51:45.629Z,21.56
2018-06-05T03:54:16.341Z,21.52
2018-06-05T03:56:47.613Z,21.50
2018-06-05T03:59:18.317Z,21.48
2018-06-05T04:01:49.746Z,21.46
2018-06-05T04:04:20.387Z,21.44
2018-06-05T04:06:51.420Z,21.40
2018-06-05T04:09:22.217Z,21.38
2018-06-05T04:11:53.784Z,21.36
2018-06-05T04:14:24.261Z,21.37
2018-06-05T04:16:55.663Z,21.37
2018-06-05T04:19:25.444Z,21.41
2018-06-05T04:21:56.310Z,21.42
2018-06-05T04:24:27.622Z,21.43
2018-06-05T04:26:58.316Z,21.42
2018-06-05T04:29:29.611Z,21.40
2018-06-05T04:32:00.129Z,21.40
2018-06-05T04:34:30.601Z,21.41
2018-06-05T04:37:01.354Z,21.37
2018-06-05T04:39:32.577Z,21.28
2018-06-05T04:42:03.383Z,21.19
2018-06-05T04:44:34.677Z,21.21
2018-06-05T04:47:05.361Z,21.20
2018-06-05T04:49:36.733Z,21.19
2018-06-05T04:52:07.338Z,21.21
2018-06-05T04:54:38.643Z,21.17
2018-06-05T04:57:09.319Z,21.19
2018-06-05T04:59:40.604Z,21.20
2018-06-05T05:02:11.362Z,21.27
2018-06-05T05:04:42.608Z,21.29
2018-06-05T05:07:13.405Z,21.33
2018-06-05T05:09:44.645Z,21.28
2018-06-05T05:12:15.290Z,21.29
2018-06-05T05:14:46.729Z,21.32
2018-06-05T05:17:17.430Z,21.36
2018-06-05T05:19:48.274Z,21.42
2018-06-05T05:22:19.657Z,21.48
2018-06-05T05:24:50.366Z,21.50
2018-06-05T05:27:22.033Z,21.54
2018-06-05T05:29:51.793Z,21.54
2018-06-05T05:32:22.367Z,21.61
2018-06-05T05:34:53.612Z,21.61
2018-06-05T05:37:24.461Z,21.60
2018-06-05T05:39:55.306Z,21.62
2018-06-05T05:42:26.752Z,21.64
2018-06-05T05:44:57.302Z,21.65
2018-06-05T05:47:28.682Z,21.60
2018-06-05T05:49:59.377Z,21.63
2018-06-05T05:52:30.237Z,21.71
2018-06-05T05:55:00.590Z,21.75
2018-06-05T05:57:31.649Z,21.85
2018-06-05T06:00:02.742Z,21.93
2018-06-05T06:02:33.393Z,21.91
2018-06-05T06:05:04.825Z,21.95
2018-06-05T06:07:35.356Z,21.98
2018-06-05T06:10:06.646Z,22.07
2018-06-05T06:12:37.417Z,22.16
2018-06-05T06:15:08.276Z,22.24
2018-06-05T06:17:40.073Z,22.29
2018-06-05T06:20:10.571Z,22.38
2018-06-05T06:22:41.369Z,22.45
2018-06-05T06:25:12.661Z,22.56
2018-06-05T06:27:43.341Z,22.61
2018-06-05T06:30:14.707Z,22.64
2018-06-05T06:32:45.354Z,22.71
2018-06-05T06:35:16.618Z,22.77
2018-06-05T06:37:47.313Z,22.82
2018-06-05T06:40:18.605Z,22.86
2018-06-05T06:42:49.397Z,22.82
2018-06-05T06:45:20.581Z,22.89
2018-06-05T06:47:51.378Z,23.01
2018-06-05T06:50:21.200Z,23.11
2018-06-05T06:52:52.946Z,23.12
2018-06-05T06:55:23.414Z,23.23
2018-06-05T06:57:54.361Z,23.36
2018-06-05T07:00:25.609Z,23.47
2018-06-05T07:02:55.422Z,23.49
2018-06-05T07:05:26.318Z,23.38
2018-06-05T07:07:57.733Z,23.43
2018-06-05T07:10:28.293Z,23.48
2018-06-05T07:12:59.569Z,23.49
2018-06-05T07:15:30.275Z,23.62
2018-06-05T07:18:01.709Z,23.66
2018-06-05T07:20:32.282Z,23.78
2018-06-05T07:23:03.665Z,23.88
2018-06-05T07:25:34.338Z,23.94
2018-06-05T07:28:05.597Z,24.03
2018-06-05T07:30:36.340Z,24.17
2018-06-05T07:33:07.620Z,24.22
2018-06-05T07:35:38.345Z,24.25
2018-06-05T07:38:09.603Z,24.28
2018-06-05T07:40:40.685Z,24.36
2018-06-05T07:43:10.504Z,24.43
2018-06-05T07:45:41.309Z,24.53
2018-06-05T07:48:12.669Z,24.62
2018-06-05T07:50:43.347Z,24.78
2018-06-05T07:53:14.714Z,24.85
2018-06-05T07:55:45.358Z,24.77
2018-06-05T07:58:16.289Z,24.80
2018-06-05T08:00:47.541Z,24.78
2018-06-05T08:03:18.328Z,24.53
2018-06-05T08:05:49.650Z,24.55
2018-06-05T08:08:20.477Z,24.72
2018-06-05T08:10:51.353Z,25.05
2018-06-05T08:13:22.693Z,25.30
2018-06-05T08:15:53.286Z,25.16
2018-06-05T08:18:24.706Z,25.19
2018-06-05T08:20:55.370Z,25.26
2018-06-05T08:23:25.310Z,25.26
2018-06-05T08:25:56.513Z,25.34
2018-06-05T08:28:27.276Z,25.31
2018-06-05T08:30:58.597Z,25.52
2018-06-05T08:33:29.290Z,25.42
2018-06-05T08:36:00.573Z,25.72
2018-06-05T08:38:31.265Z,25.71
2018-06-05T08:41:02.642Z,25.81
2018-06-05T08:43:33.391Z,25.79
2018-06-05T08:46:04.269Z,25.49
2018-06-05T08:48:35.669Z,25.34
2018-06-05T08:51:06.238Z,25.08
2018-06-05T08:53:37.664Z,24.92
2018-06-05T08:56:08.265Z,25.25
2018-06-05T08:58:39.548Z,25.54
2018-06-05T09:01:10.365Z,25.74
2018-06-05T09:03:41.637Z,26.01
2018-06-05T09:06:12.341Z,25.89
2018-06-05T09:08:43.840Z,26.13
2018-06-05T09:11:14.302Z,26.26
2018-06-05T09:13:45.595Z,26.30
2018-06-05T09:16:16.266Z,25.89
2018-06-05T09:18:47.701Z,26.06
2018-06-05T09:21:18.197Z,26.22
2018-06-05T09:23:49.670Z,26.40
2018-06-05T09:26:20.254Z,26.57
2018-06-05T09:28:51.613Z,26.79
2018-06-05T09:31:23.317Z,27.06
2018-06-05T09:33:53.553Z,26.91
2018-06-05T09:36:24.300Z,26.96
2018-06-05T09:38:55.584Z,27.09
2018-06-05T09:41:26.293Z,27.17
2018-06-05T09:43:57.585Z,27.30
2018-06-05T09:46:28.282Z,27.51
2018-06-05T09:48:59.565Z,27.68
2018-06-05T09:51:30.302Z,26.95
2018-06-05T09:54:01.780Z,26.51
2018-06-05T09:56:32.364Z,26.94
2018-06-05T09:59:03.386Z,27.19
2018-06-05T10:01:34.280Z,26.75
2018-06-05T10:04:05.657Z,27.17
2018-06-05T10:06:36.250Z,27.54
2018-06-05T10:09:08.898Z,27.59
2018-06-05T10:11:38.868Z,27.28
2018-06-05T10:14:09.474Z,27.08
2018-06-05T10:16:40.261Z,27.43
2018-06-05T10:19:11.637Z,27.70
2018-06-05T10:21:43.276Z,27.97
2018-06-05T10:24:13.654Z,28.24
2018-06-05T10:26:43.446Z,28.23
2018-06-05T10:29:14.279Z,27.95
2018-06-05T10:31:44.725Z,27.69
2018-06-05T10:34:15.589Z,28.01
2018-06-05T10:36:46.281Z,28.31
2018-06-05T10:39:17.654Z,27.91
2018-06-05T10:41:48.308Z,27.22
2018-06-05T10:44:19.684Z,26.89
2018-06-05T10:46:50.331Z,27.39
2018-06-05T10:49:20.757Z,27.74
2018-06-05T10:51:51.285Z,28.33
2018-06-05T10:54:22.648Z,28.56
2018-06-05T10:56:53.242Z,28.73
2018-06-05T10:59:24.710Z,28.01
2018-06-05T11:01:55.254Z,28.59
2018-06-05T11:04:26.618Z,28.61
2018-06-05T11:06:57.216Z,28.86
2018-06-05T11:09:28.621Z,29.14
2018-06-05T11:11:58.378Z,29.10
2018-06-05T11:14:29.290Z,29.38
2018-06-05T11:16:59.526Z,29.04
2018-06-05T11:19:30.444Z,28.28
2018-06-05T11:22:02.072Z,28.17
2018-06-05T11:24:32.554Z,28.11
2018-06-05T11:27:03.247Z,28.45
2018-06-05T11:29:34.605Z,28.78
2018-06-05T11:32:05.049Z,28.81
2018-06-05T11:34:35.520Z,28.24
2018-06-05T11:37:06.348Z,28.18
2018-06-05T11:39:37.693Z,28.59
2018-06-05T11:42:08.250Z,28.82
2018-06-05T11:44:39.711Z,29.14
2018-06-05T11:47:10.290Z,29.48
2018-06-05T11:49:41.897Z,29.67
2018-06-05T11:52:12.311Z,29.39
2018-06-05T11:54:43.673Z,29.52
2018-06-05T11:57:14.261Z,29.62
2018-06-05T11:59:45.630Z,29.38
2018-06-05T12:02:16.289Z,29.59
2018-06-05T12:04:47.666Z,29.35
2018-06-05T12:07:18.294Z,29.18
2018-06-05T12:09:48.754Z,29.34
2018-06-05T12:12:19.327Z,28.79
2018-06-05T12:14:50.660Z,29.13
2018-06-05T12:17:21.233Z,29.57
2018-06-05T12:19:52.729Z,29.80
2018-06-05T12:22:23.526Z,29.54
2018-06-05T12:24:54.346Z,29.97
2018-06-05T12:27:25.197Z,29.86
2018-06-05T12:29:56.673Z,30.04
2018-06-05T12:32:27.604Z,29.79
2018-06-05T12:34:58.069Z,30.03
2018-06-05T12:37:28.503Z,30.02
2018-06-05T12:39:59.386Z,29.70
2018-06-05T12:42:30.353Z,30.10
2018-06-05T12:45:01.687Z,30.26
2018-06-05T12:47:32.880Z,29.57
2018-06-05T12:50:04.402Z,29.73
2018-06-05T12:52:35.691Z,30.08
2018-06-05T12:55:06.133Z,29.80
2018-06-05T12:57:38.452Z,29.55
2018-06-05T13:00:09.077Z,29.96
2018-06-05T13:02:39.263Z,30.15
2018-06-05T13:05:09.273Z,30.14
2018-06-05T13:07:39.882Z,30.30
2018-06-05T13:10:11.881Z,30.18
2018-06-05T13:12:43.267Z,30.36
2018-06-05T13:15:13.979Z,30.12
2018-06-05T13:17:43.974Z,30.00
2018-06-05T13:20:16.618Z,30.07
2018-06-05T13:22:47.442Z,30.54
2018-06-05T13:25:18.590Z,30.81
2018-06-05T13:27:49.040Z,31.07
2018-06-05T13:30:19.754Z,31.50
2018-06-05T13:32:49.682Z,31.73
2018-06-05T13:35:20.501Z,31.76
2018-06-05T13:37:51.446Z,31.35
2018-06-05T13:40:22.397Z,30.45
2018-06-05T13:42:52.350Z,30.57
2018-06-05T13:45:23.836Z,30.24
2018-06-05T13:47:54.388Z,30.43
2018-06-05T13:50:25.541Z,30.58
2018-06-05T13:52:56.689Z,30.41
2018-06-05T13:55:27.504Z,30.62
2018-06-05T13:57:58.373Z,30.89
2018-06-05T14:00:29.473Z,31.25
2018-06-05T14:02:59.479Z,31.43
2018-06-05T14:05:30.437Z,31.44
2018-06-05T14:08:01.837Z,31.18
2018-06-05T14:10:32.881Z,31.37
2018-06-05T14:13:04.456Z,31.36
2018-06-05T14:15:34.952Z,31.60
2018-06-05T14:18:05.490Z,31.12
2018-06-05T14:20:36.545Z,31.08
2018-06-05T14:23:07.437Z,30.84
2018-06-05T14:25:38.425Z,30.86
2018-06-05T14:28:09.471Z,31.06
2018-06-05T14:30:40.500Z,30.80
2018-06-05T14:33:11.370Z,30.80
2018-06-05T14:35:42.394Z,30.90
2018-06-05T14:38:13.737Z,30.99
2018-06-05T14:40:46.135Z,30.78
2018-06-05T14:43:18.194Z,30.77
2018-06-05T14:45:49.334Z,30.50
2018-06-05T14:48:19.915Z,30.53
2018-06-05T14:50:51.406Z,30.18
2018-06-05T14:53:21.901Z,29.82
2018-06-05T14:55:52.420Z,29.76
2018-06-05T14:58:22.289Z,30.16
2018-06-05T15:00:52.888Z,30.08
2018-06-05T15:03:24.052Z,29.79
2018-06-05T15:05:54.281Z,29.97
2018-06-05T15:08:25.331Z,30.19
2018-06-05T15:10:55.290Z,30.36
2018-06-05T15:13:26.765Z,30.17
2018-06-05T15:15:57.957Z,30.41
2018-06-05T15:18:28.557Z,30.51
2018-06-05T15:20:59.505Z,29.81
2018-06-05T15:23:30.452Z,29.00
2018-06-05T15:26:01.478Z,29.25
2018-06-05T15:28:32.414Z,29.14
2018-06-05T15:31:03.582Z,29.17
2018-06-05T15:33:34.614Z,29.03
2018-06-05T15:36:04.630Z,28.95
2018-06-05T15:38:36.645Z,29.24
2018-06-05T15:41:06.936Z,29.29
2018-06-05T15:43:37.526Z,29.40
2018-06-05T15:46:08.419Z,29.10
2018-06-05T15:48:39.336Z,29.44
2018-06-05T15:51:10.727Z,29.35
2018-06-05T15:53:41.375Z,28.84
2018-06-05T15:56:12.670Z,28.96
2018-06-05T15:58:43.353Z,28.83
2018-06-05T16:01:14.800Z,28.68
2018-06-05T16:03:45.627Z,28.99
2018-06-05T16:06:16.530Z,29.16
2018-06-05T16:08:47.650Z,29.02
2018-06-05T16:11:18.669Z,28.46
2018-06-05T16:13:49.916Z,28.32
2018-06-05T16:16:20.519Z,28.25
2018-06-05T16:18:52.094Z,28.33
2018-06-05T16:21:23.059Z,28.49
2018-06-05T16:23:54.146Z,28.49
2018-06-05T16:26:24.670Z,28.63
2018-06-05T16:28:55.226Z,28.75
2018-06-05T16:31:26.331Z,28.60
2018-06-05T16:33:56.731Z,28.49
2018-06-05T16:36:26.715Z,28.49
2018-06-05T16:38:57.446Z,28.57
2018-06-05T16:41:28.490Z,28.57
2018-06-05T16:43:59.488Z,28.29
2018-06-05T16:46:30.414Z,28.22
2018-06-05T16:49:01.846Z,27.85
2018-06-05T16:51:33.656Z,27.86
2018-06-05T16:54:04.426Z,27.67
2018-06-05T16:56:34.522Z,27.79
2018-06-05T16:59:05.971Z,27.75
2018-06-05T17:01:36.446Z,27.70
2018-06-05T17:04:07.265Z,27.69
2018-06-05T17:06:38.667Z,27.49
2018-06-05T17:09:09.650Z,27.48
2018-06-05T17:11:40.409Z,27.38
2018-06-05T17:14:11.417Z,27.37
2018-06-05T17:16:41.476Z,26.95
2018-06-05T17:19:12.363Z,26.86
2018-06-05T17:21:43.817Z,27.05
2018-06-05T17:24:14.294Z,27.05
2018-06-05T17:26:45.759Z,27.02
2018-06-05T17:29:15.597Z,27.00
2018-06-05T17:31:47.142Z,27.15
2018-06-05T17:34:18.123Z,26.96
2018-06-05T17:36:48.631Z,27.12
2018-06-05T17:39:19.589Z,27.19
2018-06-05T17:41:50.457Z,27.17
2018-06-05T17:44:21.389Z,27.15
2018-06-05T17:46:52.756Z,27.15
2018-06-05T17:49:23.366Z,27.28
2018-06-05T17:51:54.714Z,27.12
2018-06-05T17:54:25.417Z,27.16
2018-06-05T17:56:56.405Z,27.22
2018-06-05T17:59:27.307Z,27.24
2018-06-05T18:01:58.725Z,27.26
2018-06-05T18:04:29.467Z,27.18
2018-06-05T18:07:00.616Z,27.20
2018-06-05T18:09:30.537Z,27.12
2018-06-05T18:12:01.607Z,27.07
2018-06-05T18:14:32.385Z,27.08
2018-06-05T18:17:04.085Z,27.05
2018-06-05T18:19:34.694Z,26.99
2018-06-05T18:22:05.481Z,26.96
2018-06-05T18:24:36.373Z,26.93
2018-06-05T18:27:07.760Z,26.89
2018-06-05T18:29:38.281Z,26.83
2018-06-05T18:32:09.054Z,26.77
2018-06-05T18:34:39.530Z,26.70
2018-06-05T18:37:10.392Z,26.65
2018-06-05T18:39:41.524Z,26.57
2018-06-05T18:42:12.382Z,26.49
2018-06-05T18:44:44.087Z,26.43
2018-06-05T18:47:14.680Z,26.37
2018-06-05T18:49:45.372Z,26.30
2018-06-05T18:52:15.407Z,26.22
2018-06-05T18:54:46.345Z,26.15
2018-06-05T18:57:17.700Z,26.07
2018-06-05T18:59:48.465Z,25.99
2018-06-05T19:02:18.329Z,25.95
2018-06-05T19:04:49.678Z,25.88
2018-06-05T19:07:20.366Z,25.80
2018-06-05T19:09:51.666Z,25.74
2018-06-05T19:12:22.507Z,25.68
2018-06-05T19:14:53.359Z,25.61
2018-06-05T19:17:23.693Z,25.56
2018-06-05T19:19:54.457Z,25.49
2018-06-05T19:22:25.494Z,25.43
2018-06-05T19:24:56.427Z,25.36
2018-06-05T19:27:27.533Z,25.28
2018-06-05T19:29:57.430Z,25.19
2018-06-05T19:32:29.433Z,25.12
2018-06-05T19:34:59.417Z,25.06
2018-06-05T19:37:29.366Z,24.95
2018-06-05T19:40:00.721Z,24.87
2018-06-05T19:42:31.549Z,24.80
2018-06-05T19:45:02.462Z,24.73
2018-06-05T19:47:33.457Z,24.67
2018-06-05T19:50:04.920Z,24.61
2018-06-05T19:52:35.479Z,24.55
2018-06-05T19:55:06.477Z,24.49
2018-06-05T19:57:37.363Z,24.44
2018-06-05T20:00:08.752Z,24.38
2018-06-05T20:03:42.207Z,24.32
2018-06-05T20:06:12.132Z,24.22
2018-06-05T20:08:42.107Z,24.16
2018-06-05T20:11:11.905Z,24.10
2018-06-05T20:13:41.942Z,24.06
2018-06-05T20:16:11.895Z,24.01
2018-06-05T20:18:42.040Z,23.95
2018-06-05T20:21:12.041Z,23.92
2018-06-05T20:23:42.110Z,23.85
2018-06-05T20:26:12.471Z,23.82
2018-06-05T20:28:42.536Z,23.79
2018-06-05T20:31:12.553Z,23.76
2018-06-05T20:33:42.866Z,23.75
2018-06-05T20:36:13.056Z,23.68
2018-06-05T20:38:43.586Z,23.65
2018-06-05T20:41:13.523Z,23.59
2018-06-05T20:43:43.858Z,23.57
2018-06-05T20:46:14.033Z,23.55
2018-06-05T20:48:44.284Z,23.52
2018-06-05T20:51:15.135Z,23.48
2018-06-05T20:53:45.486Z,23.44
2018-06-05T20:56:37.475Z,23.43
2018-06-05T20:59:07.398Z,23.40
2018-06-05T21:01:39.517Z,23.36
2018-06-05T21:04:09.450Z,23.34
2018-06-05T21:06:39.389Z,23.29
2018-06-05T21:09:09.262Z,23.26
2018-06-05T21:11:39.134Z,23.22
2018-06-05T21:14:08.960Z,23.17
2018-06-05T21:16:38.882Z,23.14
2018-06-05T21:19:09.015Z,23.08
2018-06-05T21:21:38.981Z,23.05
2018-06-05T21:24:09.051Z,23.00
2018-06-05T21:26:39.010Z,22.94
2018-06-05T21:29:09.040Z,22.90
2018-06-05T21:31:38.967Z,22.84
2018-06-05T21:34:09.078Z,22.80
2018-06-05T21:36:38.969Z,22.78
2018-06-05T21:39:10.677Z,22.73
2018-06-05T21:41:40.773Z,22.65
2018-06-05T21:44:11.014Z,22.60
2018-06-05T21:46:47.601Z,22.52
2018-06-05T21:49:17.486Z,22.49
2018-06-05T21:51:47.388Z,22.41
2018-06-05T21:54:17.229Z,22.29
2018-06-05T21:56:47.054Z,22.27
2018-06-05T21:59:16.849Z,22.22
2018-06-05T22:01:47.047Z,22.14
2018-06-05T22:04:17.011Z,22.08
2018-06-05T22:06:46.952Z,21.98
2018-06-05T22:09:16.921Z,21.89
2018-06-05T22:11:47.143Z,21.81
2018-06-05T22:14:16.965Z,21.70
2018-06-05T22:16:46.985Z,21.59
2018-06-05T22:19:16.983Z,21.56
2018-06-05T22:21:46.943Z,21.55
2018-06-05T22:24:16.985Z,21.29
2018-06-05T22:26:47.340Z,21.47
2018-06-05T22:29:17.217Z,21.13
2018-06-05T22:31:47.053Z,20.98
2018-06-05T22:34:16.921Z,20.74
2018-06-05T22:36:46.969Z,20.64
2018-06-05T22:39:16.929Z,20.61
2018-06-05T22:41:47.321Z,20.50
2018-06-05T22:44:17.545Z,20.50
2018-06-05T22:46:47.378Z,20.38
2018-06-05T22:49:17.253Z,20.36
2018-06-05T22:51:47.068Z,20.28
2018-06-05T22:54:16.861Z,20.28
2018-06-05T22:56:46.938Z,20.05
2018-06-05T22:59:16.888Z,20.06
2018-06-05T23:01:47.005Z,19.90
2018-06-05T23:04:16.769Z,19.80
2018-06-05T23:06:46.993Z,19.79
2018-06-05T23:09:16.942Z,19.71
2018-06-05T23:11:46.957Z,19.70
2018-06-05T23:14:16.851Z,19.62
2018-06-05T23:16:46.953Z,19.31
2018-06-05T23:19:16.753Z,19.34
2018-06-05T23:21:46.990Z,19.43
2018-06-05T23:24:17.237Z,19.26
2018-06-05T23:26:47.268Z,19.21
2018-06-05T23:29:17.144Z,19.27
2018-06-05T23:31:47.405Z,19.07
2018-06-05T23:34:17.306Z,18.93
2018-06-05T23:36:47.291Z,18.88
2018-06-05T23:39:17.153Z,18.61
2018-06-05T23:41:47.078Z,18.59
2018-06-05T23:44:17.327Z,18.24
2018-06-05T23:47:00.258Z,18.06
2018-06-05T23:49:30.175Z,18.14
2018-06-05T23:52:00.038Z,18.15
2018-06-05T23:54:29.921Z,18.13
2018-06-05T23:57:00.373Z,17.92
2018-06-05T23:59:30.222Z,17.84
